Wetterdaten: Woche 04.10.10 - 10.10.10 (KW40)
Datum Zeit Temp. A. Temp. A. min Temp. A. max Feuchte A. Luftdruck Regen Wind Richtung Taupunkt Windchill
04.10.2010 00:00 14,1 C 0,0 C 0,0 C 84 % 1004,5 hPa 0,0 l/m 0,9 km/h (0 Bft) NW 11,5 C 14,1 C
04.10.2010 01:00 13,7 C 0,0 C 0,0 C 85 % 1004,3 hPa 0,0 l/m 2,1 km/h (1 Bft) NW 11,1 C 13,7 C
04.10.2010 02:00 12,9 C 0,0 C 0,0 C 85 % 1004,5 hPa 0,0 l/m 0,3 km/h (0 Bft) W 10,5 C 12,9 C
04.10.2010 03:00 12,8 C 0,0 C 0,0 C 85 % 1003,8 hPa 0,0 l/m 4,4 km/h (1 Bft) NW 10,3 C 12,8 C
04.10.2010 04:00 12,4 C 0,0 C 0,0 C 85 % 1003,5 hPa 0,0 l/m 4,5 km/h (1 Bft) NW 9,9 C 12,4 C
04.10.2010 05:00 12,2 C 0,0 C 0,0 C 85 % 1002,5 hPa 0,0 l/m 7,2 km/h (2 Bft) SO 9,8 C 12,2 C
04.10.2010 06:00 12,0 C 0,0 C 0,0 C 85 % 1002,5 hPa 0,0 l/m 7,1 km/h (2 Bft) NW 9,5 C 12,0 C
04.10.2010 07:00 11,8 C 0,0 C 0,0 C 85 % 1002,5 hPa 0,0 l/m 8,1 km/h (2 Bft) N 9,3 C 11,8 C
04.10.2010 08:00 12,1 C 0,0 C 0,0 C 85 % 1002,3 hPa 0,0 l/m 9,3 km/h (2 Bft) W-NW 9,6 C 12,1 C
04.10.2010 09:00 13,3 C 0,0 C 0,0 C 85 % 1002,5 hPa 0,0 l/m 5,0 km/h (1 Bft) O 10,7 C 13,3 C
04.10.2010 10:00 14,7 C 0,0 C 0,0 C 82 % 1003,0 hPa 0,0 l/m 4,5 km/h (1 Bft) O-NO 11,6 C 14,7 C
04.10.2010 11:00 15,9 C 0,0 C 0,0 C 79 % 1002,5 hPa 0,0 l/m 4,2 km/h (1 Bft) N-NW 12,2 C 15,9 C
04.10.2010 12:00 17,1 C 0,0 C 0,0 C 76 % 1002,5 hPa 0,0 l/m 6,4 km/h (2 Bft) NW 12,7 C 17,1 C
04.10.2010 13:00 19,4 C 0,0 C 0,0 C 70 % 1001,8 hPa 0,0 l/m 5,8 km/h (2 Bft) N 13,7 C 19,4 C
04.10.2010 14:00 20,0 C 0,0 C 0,0 C 68 % 1000,8 hPa 0,0 l/m 8,4 km/h (2 Bft) O-NO 14,0 C 20,0 C
04.10.2010 15:00 19,3 C 0,0 C 0,0 C 70 % 1000,3 hPa 0,0 l/m 8,4 km/h (2 Bft) N 13,6 C 19,3 C
04.10.2010 16:00 17,8 C 0,0 C 0,0 C 75 % 999,8 hPa 0,0 l/m 6,6 km/h (2 Bft) NW 13,2 C 17,8 C
04.10.2010 17:00 17,5 C 0,0 C 0,0 C 74 % 999,5 hPa 0,0 l/m 7,8 km/h (2 Bft) NO 12,9 C 17,5 C
04.10.2010 18:00 15,7 C 0,0 C 0,0 C 77 % 999,5 hPa 0,0 l/m 5,5 km/h (1 Bft) NO 11,7 C 15,7 C
04.10.2010 19:00 14,4 C 0,0 C 0,0 C 80 % 1000,5 hPa 0,0 l/m 1,4 km/h (1 Bft) NO 11,0 C 14,4 C
04.10.2010 20:00 13,6 C 0,0 C 0,0 C 82 % 1000,8 hPa 0,0 l/m 4,6 km/h (1 Bft) N-NW 10,6 C 13,6 C
04.10.2010 21:00 13,1 C 0,0 C 0,0 C 83 % 1002,0 hPa 0,0 l/m 0,0 km/h (0 Bft) N 10,3 C 13,1 C
04.10.2010 22:00 12,7 C 0,0 C 0,0 C 85 % 1002,5 hPa 0,0 l/m 0,0 km/h (0 Bft) N 10,2 C 12,7 C
04.10.2010 23:00 12,8 C 0,0 C 0,0 C 84 % 1002,5 hPa 0,0 l/m 0,7 km/h (0 Bft) N-NW 10,2 C 12,8 C
05.10.2010 00:00 12,5 C 0,0 C 0,0 C 85 % 1002,5 hPa 0,0 l/m 0,3 km/h (0 Bft) N-NW 10,1 C 12,5 C
05.10.2010 01:00 12,5 C 0,0 C 0,0 C 85 % 1002,5 hPa 0,0 l/m 0,1 km/h (0 Bft) NW 10,0 C 12,5 C
05.10.2010 02:00 12,0 C 0,0 C 0,0 C 85 % 1003,0 hPa 0,0 l/m 0,0 km/h (0 Bft) N 9,5 C 12,0 C
05.10.2010 03:00 12,1 C 0,0 C 0,0 C 85 % 1003,5 hPa 0,0 l/m 0,0 km/h (0 Bft) N 9,7 C 12,1 C
05.10.2010 04:00 12,6 C 0,0 C 0,0 C 85 % 1003,8 hPa 0,3 l/m 0,0 km/h (0 Bft) N 10,2 C 12,6 C
05.10.2010 05:00 12,6 C 0,0 C 0,0 C 85 % 1003,8 hPa 0,3 l/m 0,0 km/h (0 Bft) N 10,1 C 12,6 C
05.10.2010 06:00 11,9 C 0,0 C 0,0 C 86 % 1004,0 hPa 0,0 l/m 0,0 km/h (0 Bft) N 9,5 C 11,9 C
05.10.2010 07:00 11,9 C 0,0 C 0,0 C 86 % 1004,3 hPa 0,0 l/m 0,0 km/h (0 Bft) N 9,7 C 11,9 C
05.10.2010 08:00 12,6 C 0,0 C 0,0 C 86 % 1004,5 hPa 0,0 l/m 0,0 km/h (0 Bft) N 10,4 C 12,6 C
05.10.2010 09:00 13,3 C 0,0 C 0,0 C 85 % 1005,5 hPa 0,0 l/m 0,0 km/h (0 Bft) N 10,9 C 13,3 C
05.10.2010 10:00 14,4 C 0,0 C 0,0 C 85 % 1005,5 hPa 0,0 l/m 0,7 km/h (0 Bft) S 11,9 C 14,4 C
05.10.2010 11:00 15,0 C 0,0 C 0,0 C 85 % 1005,5 hPa 0,6 l/m 6,2 km/h (2 Bft) S 12,4 C 15,0 C
05.10.2010 12:00 15,8 C 0,0 C 0,0 C 84 % 1005,8 hPa 0,0 l/m 8,0 km/h (2 Bft) S-SW 13,0 C 15,8 C
05.10.2010 13:00 16,6 C 0,0 C 0,0 C 81 % 1005,8 hPa 0,0 l/m 10,9 km/h (2 Bft) S 13,3 C 16,6 C
05.10.2010 14:00 16,2 C 0,0 C 0,0 C 82 % 1006,5 hPa 0,0 l/m 9,3 km/h (2 Bft) SO 13,1 C 16,2 C
05.10.2010 15:00 14,9 C 0,0 C 0,0 C 83 % 1007,0 hPa 0,0 l/m 8,9 km/h (2 Bft) W 12,0 C 14,9 C
05.10.2010 16:00 13,9 C 0,0 C 0,0 C 83 % 1007,5 hPa 0,0 l/m 6,9 km/h (2 Bft) SW 11,2 C 13,9 C
05.10.2010 17:00 12,8 C 0,0 C 0,0 C 85 % 1008,3 hPa 0,0 l/m 7,2 km/h (2 Bft) S 10,3 C 12,8 C
05.10.2010 18:00 12,3 C 0,0 C 0,0 C 85 % 1008,8 hPa 0,3 l/m 4,4 km/h (1 Bft) W 9,9 C 12,3 C
05.10.2010 19:00 12,2 C 0,0 C 0,0 C 86 % 1009,3 hPa 0,0 l/m 0,4 km/h (0 Bft) N 10,0 C 12,2 C
05.10.2010 20:00 11,8 C 0,0 C 0,0 C 86 % 1009,5 hPa 0,0 l/m 0,0 km/h (0 Bft) N 9,5 C 11,8 C
05.10.2010 21:00 12,0 C 0,0 C 0,0 C 86 % 1010,5 hPa 0,0 l/m 0,0 km/h (0 Bft) N 9,7 C 12,0 C
05.10.2010 22:00 12,1 C 0,0 C 0,0 C 86 % 1010,5 hPa 0,0 l/m 0,0 km/h (0 Bft) N 9,8 C 12,1 C
05.10.2010 23:00 12,2 C 0,0 C 0,0 C 86 % 1010,5 hPa 0,0 l/m 0,0 km/h (0 Bft) N 9,9 C 12,2 C
06.10.2010 00:00 12,2 C 0,0 C 0,0 C 86 % 1010,5 hPa 0,0 l/m 0,0 km/h (0 Bft) N 9,9 C 12,2 C
06.10.2010 01:00 12,2 C 0,0 C 0,0 C 85 % 1010,5 hPa 0,0 l/m 0,0 km/h (0 Bft) N 9,7 C 12,2 C
06.10.2010 02:00 12,2 C 0,0 C 0,0 C 85 % 1010,5 hPa 0,0 l/m 1,6 km/h (1 Bft) S-SO 9,9 C 12,2 C
06.10.2010 03:00 12,2 C 0,0 C 0,0 C 85 % 1010,3 hPa 0,0 l/m 0,1 km/h (0 Bft) N 9,7 C 12,2 C
06.10.2010 04:00 11,8 C 0,0 C 0,0 C 85 % 1009,8 hPa 0,0 l/m 0,0 km/h (0 Bft) N 9,4 C 11,8 C
06.10.2010 05:00 10,7 C 0,0 C 0,0 C 86 % 1010,3 hPa 0,0 l/m 0,0 km/h (0 Bft) N 8,4 C 10,7 C
06.10.2010 06:00 10,1 C 0,0 C 0,0 C 86 % 1010,0 hPa 0,0 l/m 0,0 km/h (0 Bft) N 7,9 C 10,1 C
06.10.2010 07:00 9,9 C 0,0 C 0,0 C 87 % 1010,5 hPa 0,0 l/m 0,0 km/h (0 Bft) N 7,8 C 9,9 C
06.10.2010 08:00 10,7 C 0,0 C 0,0 C 86 % 1010,5 hPa 0,0 l/m 0,0 km/h (0 Bft) N 8,5 C 10,7 C
06.10.2010 09:00 13,0 C 0,0 C 0,0 C 83 % 1010,5 hPa 0,0 l/m 0,0 km/h (0 Bft) N-NO 10,1 C 13,0 C
06.10.2010 10:00 15,3 C 0,0 C 0,0 C 76 % 1010,5 hPa 0,0 l/m 4,0 km/h (1 Bft) O-NO 11,2 C 15,3 C
06.10.2010 11:00 15,9 C 0,0 C 0,0 C 75 % 1011,0 hPa 0,0 l/m 1,1 km/h (0 Bft) O-SO 11,5 C 15,9 C
06.10.2010 12:00 17,3 C 0,0 C 0,0 C 72 % 1011,5 hPa 0,0 l/m 2,6 km/h (1 Bft) SO 12,1 C 17,3 C
06.10.2010 13:00 19,2 C 0,0 C 0,0 C 67 % 1011,5 hPa 0,0 l/m 4,8 km/h (1 Bft) SO 12,9 C 19,2 C
06.10.2010 14:00 20,8 C 0,0 C 0,0 C 62 % 1010,8 hPa 0,0 l/m 7,0 km/h (2 Bft) SO 13,2 C 20,8 C
06.10.2010 15:00 21,3 C 0,0 C 0,0 C 58 % 1010,8 hPa 0,0 l/m 6,4 km/h (2 Bft) S 12,7 C 21,3 C
06.10.2010 16:00 21,6 C 0,0 C 0,0 C 59 % 1011,3 hPa 0,0 l/m 4,4 km/h (1 Bft) SO 13,2 C 21,6 C
06.10.2010 17:00 20,1 C 0,0 C 0,0 C 64 % 1011,5 hPa 0,0 l/m 1,9 km/h (1 Bft) S-SW 13,0 C 20,1 C
06.10.2010 18:00 18,6 C 0,0 C 0,0 C 71 % 1012,3 hPa 0,0 l/m 0,0 km/h (0 Bft) N 13,3 C 18,6 C
06.10.2010 19:00 16,1 C 0,0 C 0,0 C 80 % 1012,8 hPa 0,0 l/m 0,0 km/h (0 Bft) N 12,6 C 16,1 C
06.10.2010 20:00 14,6 C 0,0 C 0,0 C 83 % 1013,5 hPa 0,0 l/m 0,0 km/h (0 Bft) N 11,8 C 14,6 C
06.10.2010 21:00 14,0 C 0,0 C 0,0 C 84 % 1014,3 hPa 0,0 l/m 0,0 km/h (0 Bft) N 11,5 C 14,0 C
06.10.2010 22:00 13,5 C 0,0 C 0,0 C 85 % 1014,5 hPa 0,0 l/m 0,0 km/h (0 Bft) N 11,0 C 13,5 C
06.10.2010 23:00 13,5 C 0,0 C 0,0 C 85 % 1014,8 hPa 0,0 l/m 0,0 km/h (0 Bft) N 11,0 C 13,5 C
07.10.2010 00:00 13,2 C 0,0 C 0,0 C 85 % 1015,5 hPa 0,0 l/m 0,0 km/h (0 Bft) N 10,8 C 13,2 C
07.10.2010 01:00 13,8 C 0,0 C 0,0 C 85 % 1015,5 hPa 0,0 l/m 1,7 km/h (1 Bft) N-NW 11,3 C 13,8 C
07.10.2010 02:00 13,6 C 0,0 C 0,0 C 85 % 1015,5 hPa 0,0 l/m 0,1 km/h (0 Bft) N 11,1 C 13,6 C
07.10.2010 03:00 13,3 C 0,0 C 0,0 C 85 % 1016,0 hPa 0,0 l/m 1,1 km/h (0 Bft) N-NO 10,8 C 13,3 C
07.10.2010 04:00 12,8 C 0,0 C 0,0 C 85 % 1016,5 hPa 0,0 l/m 2,2 km/h (1 Bft) O-NO 10,3 C 12,8 C
07.10.2010 05:00 12,6 C 0,0 C 0,0 C 85 % 1016,8 hPa 0,0 l/m 4,9 km/h (1 Bft) W 10,2 C 12,6 C
07.10.2010 06:00 12,5 C 0,0 C 0,0 C 86 % 1017,5 hPa 0,0 l/m 3,3 km/h (1 Bft) NO 10,2 C 12,5 C
07.10.2010 07:00 12,6 C 0,0 C 0,0 C 86 % 1017,3 hPa 0,0 l/m 2,4 km/h (1 Bft) NO 10,3 C 12,6 C
07.10.2010 08:00 13,0 C 0,0 C 0,0 C 86 % 1018,0 hPa 0,0 l/m 2,1 km/h (1 Bft) N-NW 10,7 C 13,0 C
07.10.2010 09:00 13,6 C 0,0 C 0,0 C 86 % 1018,5 hPa 0,0 l/m 4,0 km/h (1 Bft) NW 11,2 C 13,6 C
07.10.2010 10:00 14,5 C 0,0 C 0,0 C 85 % 1018,5 hPa 0,0 l/m 3,4 km/h (1 Bft) NW 12,0 C 14,5 C
07.10.2010 11:00 15,2 C 0,0 C 0,0 C 85 % 1018,5 hPa 0,0 l/m 5,3 km/h (1 Bft) NO 12,6 C 15,2 C
07.10.2010 12:00 15,8 C 0,0 C 0,0 C 83 % 1018,5 hPa 0,0 l/m 5,6 km/h (1 Bft) N-NW 13,0 C 15,8 C
07.10.2010 13:00 16,5 C 0,0 C 0,0 C 81 % 1018,5 hPa 0,0 l/m 5,3 km/h (1 Bft) NO 13,3 C 16,5 C
07.10.2010 14:00 17,4 C 0,0 C 0,0 C 78 % 1018,3 hPa 0,0 l/m 7,6 km/h (2 Bft) NO 13,4 C 17,4 C
07.10.2010 15:00 17,7 C 0,0 C 0,0 C 75 % 1017,5 hPa 0,0 l/m 7,9 km/h (2 Bft) NO 13,2 C 17,7 C
07.10.2010 16:00 17,1 C 0,0 C 0,0 C 76 % 1017,5 hPa 0,0 l/m 6,9 km/h (2 Bft) NO 12,9 C 17,1 C
07.10.2010 17:00 15,7 C 0,0 C 0,0 C 79 % 1017,5 hPa 0,0 l/m 6,2 km/h (2 Bft) NO 12,1 C 15,7 C
07.10.2010 18:00 14,9 C 0,0 C 0,0 C 81 % 1017,5 hPa 0,0 l/m 7,8 km/h (2 Bft) O-NO 11,6 C 14,9 C
07.10.2010 19:00 14,4 C 0,0 C 0,0 C 81 % 1017,5 hPa 0,0 l/m 7,0 km/h (2 Bft) NW 11,2 C 14,4 C
07.10.2010 20:00 14,0 C 0,0 C 0,0 C 83 % 1017,5 hPa 0,0 l/m 6,6 km/h (2 Bft) N 11,1 C 14,0 C
07.10.2010 21:00 14,0 C 0,0 C 0,0 C 83 % 1017,5 hPa 0,0 l/m 8,7 km/h (2 Bft) NO 11,2 C 14,0 C
07.10.2010 22:00 13,7 C 0,0 C 0,0 C 83 % 1017,5 hPa 0,0 l/m 9,8 km/h (2 Bft) O 10,8 C 13,7 C
07.10.2010 23:00 13,3 C 0,0 C 0,0 C 84 % 1017,5 hPa 0,0 l/m 8,8 km/h (2 Bft) O 10,5 C 13,3 C
08.10.2010 00:00 13,2 C 0,0 C 0,0 C 84 % 1017,5 hPa 0,0 l/m 10,4 km/h (2 Bft) O 10,5 C 13,2 C
08.10.2010 01:00 13,1 C 0,0 C 0,0 C 84 % 1017,5 hPa 0,0 l/m 7,1 km/h (2 Bft) NO 10,4 C 13,1 C
08.10.2010 02:00 13,0 C 0,0 C 0,0 C 84 % 1017,5 hPa 0,0 l/m 8,1 km/h (2 Bft) O 10,4 C 13,0 C
08.10.2010 03:00 12,8 C 0,0 C 0,0 C 84 % 1017,5 hPa 0,0 l/m 6,6 km/h (2 Bft) NO 10,2 C 12,8 C
08.10.2010 04:00 12,6 C 0,0 C 0,0 C 84 % 1017,5 hPa 0,0 l/m 6,5 km/h (2 Bft) O 10,0 C 12,6 C
08.10.2010 05:00 12,5 C 0,0 C 0,0 C 84 % 1017,3 hPa 0,0 l/m 5,7 km/h (1 Bft) O-NO 9,8 C 12,5 C
08.10.2010 06:00 12,2 C 0,0 C 0,0 C 84 % 1017,3 hPa 0,0 l/m 6,6 km/h (2 Bft) N-NO 9,6 C 12,2 C
08.10.2010 07:00 12,0 C 0,0 C 0,0 C 84 % 1017,3 hPa 0,0 l/m 5,6 km/h (1 Bft) O-SO 9,3 C 12,0 C
08.10.2010 08:00 11,9 C 0,0 C 0,0 C 84 % 1017,5 hPa 0,0 l/m 5,8 km/h (2 Bft) NO 9,3 C 11,9 C
08.10.2010 09:00 12,2 C 0,0 C 0,0 C 84 % 1017,5 hPa 0,0 l/m 6,0 km/h (2 Bft) N-NO 9,6 C 12,2 C
08.10.2010 10:00 12,7 C 0,0 C 0,0 C 83 % 1017,5 hPa 0,0 l/m 5,6 km/h (1 Bft) NO 9,9 C 12,7 C
08.10.2010 11:00 13,4 C 0,0 C 0,0 C 82 % 1017,5 hPa 0,0 l/m 7,3 km/h (2 Bft) N 10,5 C 13,4 C
08.10.2010 12:00 14,1 C 0,0 C 0,0 C 81 % 1017,5 hPa 0,0 l/m 7,5 km/h (2 Bft) O-NO 10,8 C 14,1 C
08.10.2010 13:00 14,8 C 0,0 C 0,0 C 79 % 1017,5 hPa 0,0 l/m 9,2 km/h (2 Bft) O-SO 11,3 C 14,8 C
08.10.2010 14:00 15,3 C 0,0 C 0,0 C 78 % 1016,8 hPa 0,0 l/m 8,5 km/h (2 Bft) O 11,4 C 15,3 C
08.10.2010 15:00 15,2 C 0,0 C 0,0 C 78 % 1016,8 hPa 0,0 l/m 9,0 km/h (2 Bft) O-NO 11,4 C 15,2 C
08.10.2010 16:00 14,8 C 0,0 C 0,0 C 80 % 1016,8 hPa 0,0 l/m 6,9 km/h (2 Bft) NO 11,3 C 14,8 C
08.10.2010 17:00 14,1 C 0,0 C 0,0 C 81 % 1016,5 hPa 0,0 l/m 5,6 km/h (1 Bft) O-NO 10,9 C 14,1 C
08.10.2010 18:00 13,1 C 0,0 C 0,0 C 83 % 1016,5 hPa 0,0 l/m 4,3 km/h (1 Bft) N-NO 10,2 C 13,1 C
08.10.2010 19:00 12,0 C 0,0 C 0,0 C 85 % 1016,5 hPa 0,0 l/m 1,2 km/h (1 Bft) N-NW 9,6 C 12,0 C
08.10.2010 20:00 11,6 C 0,0 C 0,0 C 86 % 1016,8 hPa 0,0 l/m 2,8 km/h (1 Bft) N-NW 9,3 C 11,6 C
08.10.2010 21:00 11,4 C 0,0 C 0,0 C 86 % 1016,8 hPa 0,0 l/m 4,1 km/h (1 Bft) NW 9,2 C 11,4 C
08.10.2010 22:00 11,5 C 0,0 C 0,0 C 86 % 1017,3 hPa 0,0 l/m 3,6 km/h (1 Bft) N-NW 9,2 C 11,5 C
08.10.2010 23:00 11,5 C 0,0 C 0,0 C 86 % 1016,8 hPa 0,0 l/m 6,7 km/h (2 Bft) N 9,2 C 11,5 C
09.10.2010 00:00 11,4 C 0,0 C 0,0 C 86 % 1016,8 hPa 0,0 l/m 6,6 km/h (2 Bft) NW 9,1 C 11,4 C
09.10.2010 01:00 11,2 C 0,0 C 0,0 C 86 % 1016,5 hPa 0,0 l/m 5,7 km/h (1 Bft) N-NW 9,0 C 11,2 C
09.10.2010 02:00 11,0 C 0,0 C 0,0 C 86 % 1016,5 hPa 0,0 l/m 4,7 km/h (1 Bft) NW 8,8 C 11,0 C
09.10.2010 03:00 10,8 C 0,0 C 0,0 C 86 % 1016,5 hPa 0,0 l/m 4,9 km/h (1 Bft) NW 8,5 C 10,8 C
09.10.2010 04:00 10,5 C 0,0 C 0,0 C 86 % 1016,3 hPa 0,0 l/m 3,6 km/h (1 Bft) NW 8,3 C 10,5 C
09.10.2010 05:00 10,4 C 0,0 C 0,0 C 86 % 1016,3 hPa 0,0 l/m 8,4 km/h (2 Bft) NW 8,2 C 10,4 C
09.10.2010 06:00 10,1 C 0,0 C 0,0 C 87 % 1016,5 hPa 0,0 l/m 6,1 km/h (2 Bft) O-NO 7,9 C 9,7 C
09.10.2010 07:00 9,3 C 0,0 C 0,0 C 87 % 1016,5 hPa 0,0 l/m 8,1 km/h (2 Bft) N-NW 7,2 C 8,2 C
09.10.2010 08:00 9,2 C 0,0 C 0,0 C 86 % 1016,3 hPa 0,0 l/m 7,6 km/h (2 Bft) NW 7,0 C 8,2 C
09.10.2010 09:00 10,1 C 0,0 C 0,0 C 85 % 1016,5 hPa 0,3 l/m 6,6 km/h (2 Bft) N-NO 7,8 C 9,8 C
09.10.2010 10:00 11,8 C 0,0 C 0,0 C 83 % 1016,5 hPa 0,0 l/m 6,3 km/h (2 Bft) N-NO 8,9 C 11,8 C
09.10.2010 11:00 14,2 C 0,0 C 0,0 C 76 % 1016,0 hPa 0,0 l/m 6,2 km/h (2 Bft) N-NO 10,0 C 14,2 C
09.10.2010 12:00 14,6 C 0,0 C 0,0 C 74 % 1015,5 hPa 0,0 l/m 10,4 km/h (2 Bft) O 10,0 C 14,6 C
09.10.2010 13:00 15,8 C 0,0 C 0,0 C 71 % 1014,8 hPa 0,0 l/m 9,1 km/h (2 Bft) O-SO 10,5 C 15,8 C
09.10.2010 14:00 17,0 C 0,0 C 0,0 C 67 % 1014,5 hPa 0,0 l/m 10,3 km/h (2 Bft) SO 10,8 C 17,0 C
09.10.2010 15:00 17,8 C 0,0 C 0,0 C 64 % 1013,8 hPa 0,0 l/m 9,7 km/h (2 Bft) O-NO 11,0 C 17,8 C
09.10.2010 16:00 18,0 C 0,0 C 0,0 C 63 % 1013,5 hPa 0,0 l/m 8,1 km/h (2 Bft) O 10,9 C 18,0 C
09.10.2010 17:00 17,0 C 0,0 C 0,0 C 64 % 1013,5 hPa 0,0 l/m 8,8 km/h (2 Bft) N-NO 10,0 C 17,0 C
09.10.2010 18:00 14,8 C 0,0 C 0,0 C 67 % 1013,5 hPa 0,0 l/m 6,8 km/h (2 Bft) O-NO 8,6 C 14,8 C
09.10.2010 19:00 12,2 C 0,0 C 0,0 C 73 % 1013,5 hPa 0,0 l/m 1,4 km/h (1 Bft) SW 7,5 C 12,2 C
09.10.2010 20:00 11,0 C 0,0 C 0,0 C 74 % 1013,5 hPa 0,0 l/m 1,8 km/h (1 Bft) NW 6,6 C 11,0 C
09.10.2010 21:00 10,4 C 0,0 C 0,0 C 74 % 1013,5 hPa 0,0 l/m 2,1 km/h (1 Bft) NW 6,0 C 10,4 C
09.10.2010 22:00 10,4 C 0,0 C 0,0 C 72 % 1013,3 hPa 0,0 l/m 7,2 km/h (2 Bft) NO 5,6 C 10,4 C
09.10.2010 23:00 10,7 C 0,0 C 0,0 C 70 % 1012,8 hPa 0,0 l/m 7,7 km/h (2 Bft) N 5,4 C 10,7 C
10.10.2010 00:00 10,6 C 0,0 C 0,0 C 70 % 1012,5 hPa 0,0 l/m 7,8 km/h (2 Bft) W-NW 5,3 C 10,6 C
10.10.2010 01:00 9,7 C 0,0 C 0,0 C 73 % 1012,5 hPa 0,0 l/m 8,0 km/h (2 Bft) N 5,0 C 8,9 C
10.10.2010 02:00 8,9 C 0,0 C 0,0 C 74 % 1011,8 hPa 0,0 l/m 6,7 km/h (2 Bft) NW 4,6 C 8,1 C
10.10.2010 03:00 8,1 C 0,0 C 0,0 C 75 % 1011,5 hPa 0,0 l/m 6,2 km/h (2 Bft) NO 4,0 C 7,3 C
10.10.2010 04:00 7,8 C 0,0 C 0,0 C 75 % 1011,0 hPa 0,0 l/m 7,6 km/h (2 Bft) N-NW 3,7 C 6,6 C
10.10.2010 05:00 7,5 C 0,0 C 0,0 C 75 % 1010,8 hPa 0,0 l/m 9,0 km/h (2 Bft) NW 3,4 C 5,9 C
10.10.2010 06:00 6,7 C 0,0 C 0,0 C 78 % 1010,5 hPa 0,0 l/m 9,2 km/h (2 Bft) N 3,2 C 5,1 C
10.10.2010 07:00 6,2 C 0,0 C 0,0 C 80 % 1010,5 hPa 0,0 l/m 8,3 km/h (2 Bft) NO 3,0 C 4,5 C
10.10.2010 08:00 6,5 C 0,0 C 0,0 C 78 % 1010,5 hPa 0,0 l/m 8,3 km/h (2 Bft) W-NW 3,0 C 4,9 C
10.10.2010 09:00 8,6 C 0,0 C 0,0 C 71 % 1010,5 hPa 0,0 l/m 9,1 km/h (2 Bft) NW 3,7 C 7,1 C
10.10.2010 10:00 11,2 C 0,0 C 0,0 C 64 % 1010,5 hPa 0,0 l/m 11,1 km/h (2 Bft) NO 4,5 C 11,2 C
10.10.2010 11:00 13,4 C 0,0 C 0,0 C 57 % 1010,5 hPa 0,0 l/m 9,8 km/h (2 Bft) NO 5,0 C 13,4 C
10.10.2010 12:00 15,0 C 0,0 C 0,0 C 50 % 1009,8 hPa 0,0 l/m 13,4 km/h (3 Bft) NO 4,7 C 15,0 C
10.10.2010 13:00 16,1 C 0,0 C 0,0 C 47 % 1009,5 hPa 0,0 l/m 16,5 km/h (3 Bft) NO 4,8 C 16,1 C
10.10.2010 14:00 17,0 C 0,0 C 0,0 C 45 % 1009,0 hPa 0,0 l/m 14,9 km/h (3 Bft) O-NO 4,9 C 17,0 C
10.10.2010 15:00 17,1 C 0,0 C 0,0 C 44 % 1008,8 hPa 0,0 l/m 15,1 km/h (3 Bft) NO 4,8 C 17,1 C
10.10.2010 16:00 16,9 C 0,0 C 0,0 C 45 % 1008,5 hPa 0,0 l/m 11,3 km/h (2 Bft) NW 5,0 C 16,9 C
10.10.2010 17:00 16,2 C 0,0 C 0,0 C 47 % 1008,5 hPa 0,0 l/m 9,2 km/h (2 Bft) NO 5,0 C 16,2 C
10.10.2010 18:00 14,4 C 0,0 C 0,0 C 51 % 1008,5 hPa 0,0 l/m 8,2 km/h (2 Bft) NO 4,3 C 14,4 C
10.10.2010 19:00 12,4 C 0,0 C 0,0 C 54 % 1009,3 hPa 0,0 l/m 6,8 km/h (2 Bft) NW 3,4 C 12,4 C
10.10.2010 20:00 12,0 C 0,0 C 0,0 C 53 % 1009,5 hPa 0,0 l/m 7,3 km/h (2 Bft) NW 2,6 C 12,0 C
10.10.2010 21:00 10,9 C 0,0 C 0,0 C 58 % 1009,5 hPa 0,0 l/m 7,8 km/h (2 Bft) W-NW 3,1 C 10,9 C
10.10.2010 22:00 10,3 C 0,0 C 0,0 C 62 % 1010,0 hPa 0,0 l/m 9,5 km/h (2 Bft) NW 3,4 C 10,2 C
10.10.2010 23:00 9,6 C 0,0 C 0,0 C 64 % 1010,0 hPa 0,0 l/m 9,6 km/h (2 Bft) W-NW 3,3 C 8,3 C
Min-Datum _ 10.10.10 04.10.10 04.10.10 10.10.10 04.10.10 - 04.10.10 - 10.10.10 10.10.10
_ Min-Zeit 07:42 00:01 00:01 14:32 15:31 - 00:01 - 20:17 06:37
Minimum _ 6,0 C 0,0 C 0,0 C 43 % 999,5 hPa - 0,0 km/h (0 Bft) - 2,3 C 3,3 C
Max-Datum _ 06.10.10 04.10.10 04.10.10 06.10.10 07.10.10 05.10.10 10.10.10 - 04.10.10 06.10.10
_ Max-Zeit 16:11 00:01 00:01 06:56 08:31 11:31 14:37 - 13:46 16:11
Maximum _ 22,1 C 0,0 C 0,0 C 87 % 1018,5 hPa 0,6 l/m 26,9 km/h
O-NO (4 Bft)
- 14,3 C 22,1 C
Durchschnitt _ 13,4 C 0,0 C 0,0 C 78 % 1011,4 hPa #1,8 l/m 5,2 km/h (1 Bft) NW 9,6 C 13,3 C
Wetterstation Gdesweiler